sensor_id;sensor_type;location;lat;lon;timestamp;pressure;altitude;pressure_sealevel;temperature;humidity
53715;BME280;39608;55.630;37.864;2024-03-02T00:01:26;100779.31;;;3.42;64.91
53715;BME280;39608;55.630;37.864;2024-03-02T00:06:28;100778.44;;;3.48;64.41
53715;BME280;39608;55.630;37.864;2024-03-02T00:11:30;100782.75;;;3.49;64.75
53715;BME280;39608;55.630;37.864;2024-03-02T00:16:37;100774.28;;;3.52;64.25
53715;BME280;39608;55.630;37.864;2024-03-02T00:21:39;100764.22;;;3.48;64.63
53715;BME280;39608;55.630;37.864;2024-03-02T00:26:44;100766.84;;;3.54;64.74
53715;BME280;39608;55.630;37.864;2024-03-02T00:31:47;100761.72;;;3.53;64.68
53715;BME280;39608;55.630;37.864;2024-03-02T00:36:49;100771.19;;;3.55;64.35
53715;BME280;39608;55.630;37.864;2024-03-02T00:41:51;100774.47;;;3.57;64.49
53715;BME280;39608;55.630;37.864;2024-03-02T00:46:55;100766.41;;;3.57;64.66
53715;BME280;39608;55.630;37.864;2024-03-02T00:51:57;100771.19;;;3.55;64.25
53715;BME280;39608;55.630;37.864;2024-03-02T00:56:59;100767.09;;;3.46;64.79
53715;BME280;39608;55.630;37.864;2024-03-02T01:02:03;100779.72;;;3.46;64.73
53715;BME280;39608;55.630;37.864;2024-03-02T01:07:05;100773.72;;;3.43;64.47
53715;BME280;39608;55.630;37.864;2024-03-02T01:12:07;100778.28;;;3.43;64.58
53715;BME280;39608;55.630;37.864;2024-03-02T01:17:10;100779.50;;;3.47;64.73
53715;BME280;39608;55.630;37.864;2024-03-02T01:22:12;100783.63;;;3.43;64.05
53715;BME280;39608;55.630;37.864;2024-03-02T01:27:14;100772.28;;;3.41;64.80
53715;BME280;39608;55.630;37.864;2024-03-02T01:32:18;100781.09;;;3.48;64.59
53715;BME280;39608;55.630;37.864;2024-03-02T01:37:20;100785.88;;;3.46;64.23
53715;BME280;39608;55.630;37.864;2024-03-02T01:42:22;100790.44;;;3.46;64.21
53715;BME280;39608;55.630;37.864;2024-03-02T01:47:25;100785.47;;;3.42;64.21
53715;BME280;39608;55.630;37.864;2024-03-02T01:52:27;100786.16;;;3.31;64.82
53715;BME280;39608;55.630;37.864;2024-03-02T01:57:30;100789.28;;;3.28;64.89
53715;BME280;39608;55.630;37.864;2024-03-02T02:02:34;100791.31;;;3.33;64.99
53715;BME280;39608;55.630;37.864;2024-03-02T02:07:36;100790.06;;;3.35;65.04
53715;BME280;39608;55.630;37.864;2024-03-02T02:12:39;100797.44;;;3.40;65.41
53715;BME280;39608;55.630;37.864;2024-03-02T02:17:42;100804.44;;;3.48;65.12
53715;BME280;39608;55.630;37.864;2024-03-02T02:22:56;100807.91;;;3.55;64.80
53715;BME280;39608;55.630;37.864;2024-03-02T02:27:59;100802.41;;;3.43;64.91
53715;BME280;39608;55.630;37.864;2024-03-02T02:33:01;100817.88;;;3.41;64.70
53715;BME280;39608;55.630;37.864;2024-03-02T02:38:06;100813.38;;;3.35;65.09
53715;BME280;39608;55.630;37.864;2024-03-02T02:43:08;100808.69;;;3.23;64.54
53715;BME280;39608;55.630;37.864;2024-03-02T02:48:10;100799.88;;;3.16;64.78
53715;BME280;39608;55.630;37.864;2024-03-02T02:53:13;100809.72;;;3.22;65.21
53715;BME280;39608;55.630;37.864;2024-03-02T02:58:15;100801.94;;;3.14;65.34
53715;BME280;39608;55.630;37.864;2024-03-02T03:03:17;100804.03;;;3.12;65.29
53715;BME280;39608;55.630;37.864;2024-03-02T03:08:21;100808.31;;;3.13;65.08
53715;BME280;39608;55.630;37.864;2024-03-02T03:13:24;100803.41;;;3.03;65.18
53715;BME280;39608;55.630;37.864;2024-03-02T03:18:26;100807.75;;;2.98;65.65
53715;BME280;39608;55.630;37.864;2024-03-02T03:23:31;100806.94;;;3.04;66.29
53715;BME280;39608;55.630;37.864;2024-03-02T03:28:33;100809.41;;;3.05;65.52
53715;BME280;39608;55.630;37.864;2024-03-02T03:33:35;100800.72;;;3.03;65.26
53715;BME280;39608;55.630;37.864;2024-03-02T03:38:38;100799.25;;;3.14;65.83
53715;BME280;39608;55.630;37.864;2024-03-02T03:43:40;100798.19;;;3.22;65.96
53715;BME280;39608;55.630;37.864;2024-03-02T03:48:42;100806.19;;;3.29;64.98
53715;BME280;39608;55.630;37.864;2024-03-02T03:53:46;100801.81;;;3.34;65.55
53715;BME280;39608;55.630;37.864;2024-03-02T03:58:48;100803.09;;;3.32;65.57
53715;BME280;39608;55.630;37.864;2024-03-02T04:03:50;100808.47;;;3.32;65.84
53715;BME280;39608;55.630;37.864;2024-03-02T04:08:53;100796.66;;;3.33;65.09
53715;BME280;39608;55.630;37.864;2024-03-02T04:13:55;100799.75;;;3.36;65.05
53715;BME280;39608;55.630;37.864;2024-03-02T04:18:57;100807.59;;;3.38;65.18
53715;BME280;39608;55.630;37.864;2024-03-02T04:24:01;100792.19;;;3.27;64.23
53715;BME280;39608;55.630;37.864;2024-03-02T04:29:03;100802.72;;;3.21;64.68
53715;BME280;39608;55.630;37.864;2024-03-02T04:34:05;100798.38;;;3.20;65.03
53715;BME280;39608;55.630;37.864;2024-03-02T04:39:08;100797.78;;;3.18;64.76
53715;BME280;39608;55.630;37.864;2024-03-02T04:44:11;100805.22;;;3.16;64.81
53715;BME280;39608;55.630;37.864;2024-03-02T04:49:13;100804.81;;;3.19;64.58
53715;BME280;39608;55.630;37.864;2024-03-02T04:54:17;100808.69;;;3.23;64.21
53715;BME280;39608;55.630;37.864;2024-03-02T04:59:19;100807.25;;;3.28;64.82
53715;BME280;39608;55.630;37.864;2024-03-02T05:04:21;100805.94;;;3.37;64.74
53715;BME280;39608;55.630;37.864;2024-03-02T05:09:24;100801.31;;;3.51;64.07
53715;BME280;39608;55.630;37.864;2024-03-02T05:14:26;100802.56;;;3.48;64.33
53715;BME280;39608;55.630;37.864;2024-03-02T05:19:29;100814.72;;;3.51;64.65
53715;BME280;39608;55.630;37.864;2024-03-02T05:24:32;100818.72;;;3.41;64.65
53715;BME280;39608;55.630;37.864;2024-03-02T05:29:34;100808.59;;;3.43;64.90
53715;BME280;39608;55.630;37.864;2024-03-02T05:34:36;100803.19;;;3.50;64.36
53715;BME280;39608;55.630;37.864;2024-03-02T05:39:40;100813.81;;;3.64;64.65
53715;BME280;39608;55.630;37.864;2024-03-02T05:44:43;100820.13;;;3.76;63.63
53715;BME280;39608;55.630;37.864;2024-03-02T05:49:45;100814.28;;;3.86;63.92
53715;BME280;39608;55.630;37.864;2024-03-02T05:54:49;100813.34;;;3.99;63.64
53715;BME280;39608;55.630;37.864;2024-03-02T05:59:51;100809.19;;;4.03;63.14
53715;BME280;39608;55.630;37.864;2024-03-02T06:04:55;100818.53;;;4.25;62.83
53715;BME280;39608;55.630;37.864;2024-03-02T06:09:59;100814.97;;;4.50;62.72
53715;BME280;39608;55.630;37.864;2024-03-02T06:15:01;100819.03;;;4.78;61.47
53715;BME280;39608;55.630;37.864;2024-03-02T06:20:05;100825.69;;;4.94;61.28
53715;BME280;39608;55.630;37.864;2024-03-02T06:25:10;100832.16;;;5.05;60.94
53715;BME280;39608;55.630;37.864;2024-03-02T06:30:12;100826.88;;;4.98;60.75
53715;BME280;39608;55.630;37.864;2024-03-02T06:35:14;100830.06;;;5.07;60.68
53715;BME280;39608;55.630;37.864;2024-03-02T06:40:18;100831.19;;;5.18;59.91
53715;BME280;39608;55.630;37.864;2024-03-02T06:45:21;100818.75;;;5.35;60.08
53715;BME280;39608;55.630;37.864;2024-03-02T06:50:23;100819.69;;;5.41;59.22
53715;BME280;39608;55.630;37.864;2024-03-02T06:55:27;100822.75;;;5.44;59.62
53715;BME280;39608;55.630;37.864;2024-03-02T07:00:29;100829.19;;;5.74;58.61
53715;BME280;39608;55.630;37.864;2024-03-02T07:05:31;100833.03;;;6.20;58.50
53715;BME280;39608;55.630;37.864;2024-03-02T07:10:37;100836.56;;;6.44;56.90
53715;BME280;39608;55.630;37.864;2024-03-02T07:15:39;100827.66;;;6.44;56.58
53715;BME280;39608;55.630;37.864;2024-03-02T07:21:09;100832.34;;;6.48;55.91
53715;BME280;39608;55.630;37.864;2024-03-02T07:26:12;100830.78;;;6.76;56.15
53715;BME280;39608;55.630;37.864;2024-03-02T07:31:15;100817.13;;;7.35;54.85
53715;BME280;39608;55.630;37.864;2024-03-02T07:36:18;100822.97;;;7.90;52.88
53715;BME280;39608;55.630;37.864;2024-03-02T07:41:21;100817.00;;;7.88;52.67
53715;BME280;39608;55.630;37.864;2024-03-02T07:46:23;100808.38;;;8.25;52.29
53715;BME280;39608;55.630;37.864;2024-03-02T07:51:26;100813.47;;;8.38;50.90
53715;BME280;39608;55.630;37.864;2024-03-02T07:56:28;100818.97;;;8.10;50.91
53715;BME280;39608;55.630;37.864;2024-03-02T08:01:31;100816.47;;;7.57;51.96
53715;BME280;39608;55.630;37.864;2024-03-02T08:06:35;100808.13;;;7.01;52.72
53715;BME280;39608;55.630;37.864;2024-03-02T08:11:37;100817.63;;;6.80;52.81
53715;BME280;39608;55.630;37.864;2024-03-02T08:16:40;100818.25;;;6.82;52.96
53715;BME280;39608;55.630;37.864;2024-03-02T08:21:43;100798.50;;;7.34;52.15
53715;BME280;39608;55.630;37.864;2024-03-02T08:26:46;100812.00;;;8.14;51.21
53715;BME280;39608;55.630;37.864;2024-03-02T08:31:48;100797.81;;;9.02;49.33
53715;BME280;39608;55.630;37.864;2024-03-02T08:36:51;100801.47;;;8.90;49.20
53715;BME280;39608;55.630;37.864;2024-03-02T08:41:54;100809.19;;;8.60;49.91
53715;BME280;39608;55.630;37.864;2024-03-02T08:46:56;100804.75;;;8.93;49.03
53715;BME280;39608;55.630;37.864;2024-03-02T08:51:59;100805.81;;;8.92;49.23
53715;BME280;39608;55.630;37.864;2024-03-02T08:57:02;100805.13;;;8.23;49.78
53715;BME280;39608;55.630;37.864;2024-03-02T09:02:04;100805.78;;;7.79;51.79
53715;BME280;39608;55.630;37.864;2024-03-02T09:07:07;100793.59;;;7.94;50.89
53715;BME280;39608;55.630;37.864;2024-03-02T09:12:10;100805.22;;;8.45;51.05
53715;BME280;39608;55.630;37.864;2024-03-02T09:17:13;100798.00;;;8.95;49.41
53715;BME280;39608;55.630;37.864;2024-03-02T09:22:16;100799.06;;;9.71;47.77
53715;BME280;39608;55.630;37.864;2024-03-02T09:27:18;100799.47;;;10.22;46.41
53715;BME280;39608;55.630;37.864;2024-03-02T09:32:20;100798.56;;;11.02;46.46
53715;BME280;39608;55.630;37.864;2024-03-02T09:37:25;100786.22;;;11.68;44.58
53715;BME280;39608;55.630;37.864;2024-03-02T09:42:27;100781.47;;;10.43;44.82
53715;BME280;39608;55.630;37.864;2024-03-02T09:47:30;100780.44;;;10.50;45.10
53715;BME280;39608;55.630;37.864;2024-03-02T09:52:34;100771.28;;;10.61;44.23
53715;BME280;39608;55.630;37.864;2024-03-02T09:57:37;100768.31;;;11.82;42.52
53715;BME280;39608;55.630;37.864;2024-03-02T10:02:39;100782.16;;;12.32;41.40
53715;BME280;39608;55.630;37.864;2024-03-02T10:07:58;100776.47;;;13.05;41.26
53715;BME280;39608;55.630;37.864;2024-03-02T10:13:06;100773.59;;;12.70;41.01
53715;BME280;39608;55.630;37.864;2024-03-02T10:18:09;100753.94;;;14.08;38.35
53715;BME280;39608;55.630;37.864;2024-03-02T10:23:15;100776.94;;;16.54;36.31
53715;BME280;39608;55.630;37.864;2024-03-02T10:28:18;100763.34;;;16.63;33.16
53715;BME280;39608;55.630;37.864;2024-03-02T10:33:20;100768.63;;;14.65;36.20
53715;BME280;39608;55.630;37.864;2024-03-02T10:38:26;100765.84;;;14.70;35.36
53715;BME280;39608;55.630;37.864;2024-03-02T10:43:28;100767.81;;;13.47;36.56
53715;BME280;39608;55.630;37.864;2024-03-02T10:48:31;100768.53;;;12.48;38.35
53715;BME280;39608;55.630;37.864;2024-03-02T10:53:36;100771.31;;;12.07;39.12
53715;BME280;39608;55.630;37.864;2024-03-02T10:58:38;100778.03;;;11.27;40.08
53715;BME280;39608;55.630;37.864;2024-03-02T11:03:41;100780.81;;;10.26;41.69
53715;BME280;39608;55.630;37.864;2024-03-02T11:08:47;100787.25;;;10.15;42.13
53715;BME280;39608;55.630;37.864;2024-03-02T11:13:51;100784.38;;;9.94;41.80
53715;BME280;39608;55.630;37.864;2024-03-02T11:18:54;100768.78;;;9.47;41.27
53715;BME280;39608;55.630;37.864;2024-03-02T11:23:58;100774.13;;;9.36;41.11
53715;BME280;39608;55.630;37.864;2024-03-02T11:29:00;100779.19;;;9.28;41.16
53715;BME280;39608;55.630;37.864;2024-03-02T11:34:17;100772.09;;;9.54;40.71
53715;BME280;39608;55.630;37.864;2024-03-02T11:39:21;100782.94;;;9.81;40.48
53715;BME280;39608;55.630;37.864;2024-03-02T11:44:24;100774.59;;;10.25;39.46
53715;BME280;39608;55.630;37.864;2024-03-02T11:49:36;100773.34;;;10.43;40.10
53715;BME280;39608;55.630;37.864;2024-03-02T11:54:42;100775.56;;;10.09;40.13
53715;BME280;39608;55.630;37.864;2024-03-02T11:59:47;100774.84;;;10.67;38.91
53715;BME280;39608;55.630;37.864;2024-03-02T12:04:50;100776.88;;;10.44;39.67
53715;BME280;39608;55.630;37.864;2024-03-02T12:10:01;100769.44;;;10.72;39.57
53715;BME280;39608;55.630;37.864;2024-03-02T12:15:05;100768.19;;;11.00;39.02
53715;BME280;39608;55.630;37.864;2024-03-02T12:20:11;100770.19;;;11.41;38.61
53715;BME280;39608;55.630;37.864;2024-03-02T12:25:16;100775.25;;;11.01;37.99
53715;BME280;39608;55.630;37.864;2024-03-02T12:30:19;100776.06;;;10.43;39.05
53715;BME280;39608;55.630;37.864;2024-03-02T12:35:22;100788.22;;;10.36;38.98
53715;BME280;39608;55.630;37.864;2024-03-02T12:40:27;100787.41;;;10.03;40.35
53715;BME280;39608;55.630;37.864;2024-03-02T12:45:29;100780.03;;;9.93;39.94
53715;BME280;39608;55.630;37.864;2024-03-02T12:50:31;100769.66;;;9.52;40.01
53715;BME280;39608;55.630;37.864;2024-03-02T12:55:35;100768.91;;;8.80;41.20
53715;BME280;39608;55.630;37.864;2024-03-02T13:00:37;100770.53;;;8.59;42.09
53715;BME280;39608;55.630;37.864;2024-03-02T13:05:40;100773.22;;;8.42;42.36
53715;BME280;39608;55.630;37.864;2024-03-02T13:10:44;100776.56;;;8.10;43.31
53715;BME280;39608;55.630;37.864;2024-03-02T13:15:46;100781.47;;;7.96;43.29
53715;BME280;39608;55.630;37.864;2024-03-02T13:20:48;100782.78;;;7.77;43.46
53715;BME280;39608;55.630;37.864;2024-03-02T13:25:51;100782.84;;;7.65;44.35
53715;BME280;39608;55.630;37.864;2024-03-02T13:30:53;100788.00;;;7.21;45.01
53715;BME280;39608;55.630;37.864;2024-03-02T13:35:55;100797.03;;;6.74;45.93
53715;BME280;39608;55.630;37.864;2024-03-02T13:40:59;100798.50;;;6.17;47.41
53715;BME280;39608;55.630;37.864;2024-03-02T13:46:01;100807.97;;;5.65;48.76
53715;BME280;39608;55.630;37.864;2024-03-02T13:51:04;100801.47;;;5.43;49.14
53715;BME280;39608;55.630;37.864;2024-03-02T13:56:07;100795.25;;;5.42;49.53
53715;BME280;39608;55.630;37.864;2024-03-02T14:01:09;100801.16;;;5.21;49.96
53715;BME280;39608;55.630;37.864;2024-03-02T14:06:12;100798.47;;;5.21;49.93
53715;BME280;39608;55.630;37.864;2024-03-02T14:11:15;100803.53;;;5.10;50.80
53715;BME280;39608;55.630;37.864;2024-03-02T14:16:18;100797.22;;;4.86;51.09
53715;BME280;39608;55.630;37.864;2024-03-02T14:21:20;100800.28;;;4.71;51.96
53715;BME280;39608;55.630;37.864;2024-03-02T14:26:23;100803.56;;;4.73;51.83
53715;BME280;39608;55.630;37.864;2024-03-02T14:31:25;100801.56;;;4.69;51.92
53715;BME280;39608;55.630;37.864;2024-03-02T14:36:27;100808.28;;;4.59;52.12
53715;BME280;39608;55.630;37.864;2024-03-02T14:41:31;100811.53;;;4.61;52.83
53715;BME280;39608;55.630;37.864;2024-03-02T14:46:33;100794.69;;;4.54;52.41
53715;BME280;39608;55.630;37.864;2024-03-02T14:51:35;100806.59;;;4.40;52.99
53715;BME280;39608;55.630;37.864;2024-03-02T14:56:38;100814.03;;;4.38;53.15
53715;BME280;39608;55.630;37.864;2024-03-02T15:01:41;100812.59;;;4.17;53.58
53715;BME280;39608;55.630;37.864;2024-03-02T15:06:43;100821.22;;;4.00;53.96
53715;BME280;39608;55.630;37.864;2024-03-02T15:11:46;100826.44;;;3.88;54.08
53715;BME280;39608;55.630;37.864;2024-03-02T15:16:48;100832.53;;;3.77;54.13
53715;BME280;39608;55.630;37.864;2024-03-02T15:21:50;100835.69;;;3.67;54.84
53715;BME280;39608;55.630;37.864;2024-03-02T15:26:54;100843.88;;;3.40;55.99
53715;BME280;39608;55.630;37.864;2024-03-02T15:31:57;100832.69;;;3.05;56.41
53715;BME280;39608;55.630;37.864;2024-03-02T15:37:00;100842.91;;;2.69;57.07
53715;BME280;39608;55.630;37.864;2024-03-02T15:42:04;100842.53;;;2.46;57.73
53715;BME280;39608;55.630;37.864;2024-03-02T15:47:06;100835.97;;;2.21;57.96
53715;BME280;39608;55.630;37.864;2024-03-02T15:52:08;100847.09;;;2.12;59.38
53715;BME280;39608;55.630;37.864;2024-03-02T15:57:12;100839.25;;;1.97;59.97
53715;BME280;39608;55.630;37.864;2024-03-02T16:02:15;100842.09;;;1.82;59.61
53715;BME280;39608;55.630;37.864;2024-03-02T16:07:17;100845.78;;;1.67;60.43
53715;BME280;39608;55.630;37.864;2024-03-02T16:12:21;100842.31;;;1.67;60.81
53715;BME280;39608;55.630;37.864;2024-03-02T16:17:23;100843.72;;;1.56;61.38
53715;BME280;39608;55.630;37.864;2024-03-02T16:22:25;100851.91;;;1.48;61.47
53715;BME280;39608;55.630;37.864;2024-03-02T16:27:28;100844.50;;;1.43;61.50
53715;BME280;39608;55.630;37.864;2024-03-02T16:32:30;100836.66;;;1.35;61.97
53715;BME280;39608;55.630;37.864;2024-03-02T16:37:32;100848.75;;;1.24;62.37
53715;BME280;39608;55.630;37.864;2024-03-02T16:42:36;100852.44;;;1.16;62.33
53715;BME280;39608;55.630;37.864;2024-03-02T16:47:39;100845.75;;;0.99;62.54
53715;BME280;39608;55.630;37.864;2024-03-02T16:52:41;100846.72;;;0.84;62.67
53715;BME280;39608;55.630;37.864;2024-03-02T16:57:44;100850.00;;;0.80;62.87
53715;BME280;39608;55.630;37.864;2024-03-02T17:02:46;100857.78;;;0.75;62.60
53715;BME280;39608;55.630;37.864;2024-03-02T17:07:49;100858.53;;;0.68;63.05
53715;BME280;39608;55.630;37.864;2024-03-02T17:12:52;100863.06;;;0.68;63.34
53715;BME280;39608;55.630;37.864;2024-03-02T17:17:56;100867.53;;;0.61;63.16
53715;BME280;39608;55.630;37.864;2024-03-02T17:22:58;100869.53;;;0.52;63.57
53715;BME280;39608;55.630;37.864;2024-03-02T17:28:19;100863.34;;;0.51;63.87
53715;BME280;39608;55.630;37.864;2024-03-02T17:33:21;100867.41;;;0.41;63.68
53715;BME280;39608;55.630;37.864;2024-03-02T17:38:23;100865.34;;;0.43;63.18
53715;BME280;39608;55.630;37.864;2024-03-02T17:43:27;100877.28;;;0.47;63.50
53715;BME280;39608;55.630;37.864;2024-03-02T17:48:29;100871.91;;;0.40;63.55
53715;BME280;39608;55.630;37.864;2024-03-02T17:53:31;100876.63;;;0.38;63.91
53715;BME280;39608;55.630;37.864;2024-03-02T17:58:34;100871.44;;;0.30;63.60
53715;BME280;39608;55.630;37.864;2024-03-02T18:03:37;100879.38;;;0.23;63.82
53715;BME280;39608;55.630;37.864;2024-03-02T18:08:39;100876.69;;;0.23;63.74
53715;BME280;39608;55.630;37.864;2024-03-02T18:13:43;100874.03;;;0.23;63.76
53715;BME280;39608;55.630;37.864;2024-03-02T18:18:46;100879.56;;;0.22;63.74
53715;BME280;39608;55.630;37.864;2024-03-02T18:23:49;100881.34;;;0.14;63.79
53715;BME280;39608;55.630;37.864;2024-03-02T18:28:53;100874.09;;;0.08;64.14
53715;BME280;39608;55.630;37.864;2024-03-02T18:33:55;100870.75;;;-0.01;64.35
53715;BME280;39608;55.630;37.864;2024-03-02T18:38:57;100874.41;;;-0.02;64.25
53715;BME280;39608;55.630;37.864;2024-03-02T18:44:01;100871.72;;;-0.08;64.88
53715;BME280;39608;55.630;37.864;2024-03-02T18:49:04;100880.03;;;-0.18;64.71
53715;BME280;39608;55.630;37.864;2024-03-02T18:54:06;100886.56;;;-0.21;65.12
53715;BME280;39608;55.630;37.864;2024-03-02T18:59:09;100891.63;;;-0.26;65.30
53715;BME280;39608;55.630;37.864;2024-03-02T19:04:11;100894.94;;;-0.24;64.88
53715;BME280;39608;55.630;37.864;2024-03-02T19:09:13;100883.91;;;-0.21;65.13
53715;BME280;39608;55.630;37.864;2024-03-02T19:14:17;100884.72;;;-0.20;64.94
53715;BME280;39608;55.630;37.864;2024-03-02T19:19:19;100883.91;;;-0.21;65.54
53715;BME280;39608;55.630;37.864;2024-03-02T19:24:21;100885.88;;;-0.29;66.04
53715;BME280;39608;55.630;37.864;2024-03-02T19:29:24;100884.75;;;-0.35;65.55
53715;BME280;39608;55.630;37.864;2024-03-02T19:34:29;100879.91;;;-0.46;65.97
53715;BME280;39608;55.630;37.864;2024-03-02T19:39:31;100883.81;;;-0.49;66.24
53715;BME280;39608;55.630;37.864;2024-03-02T19:44:37;100889.69;;;-0.54;66.48
53715;BME280;39608;55.630;37.864;2024-03-02T19:49:41;100877.66;;;-0.64;65.99
53715;BME280;39608;55.630;37.864;2024-03-02T19:54:43;100872.00;;;-0.76;66.33
53715;BME280;39608;55.630;37.864;2024-03-02T19:59:47;100887.25;;;-0.85;66.46
53715;BME280;39608;55.630;37.864;2024-03-02T20:04:49;100879.94;;;-0.98;66.88
53715;BME280;39608;55.630;37.864;2024-03-02T20:09:51;100899.09;;;-1.02;67.24
53715;BME280;39608;55.630;37.864;2024-03-02T20:14:55;100888.00;;;-1.06;66.73
53715;BME280;39608;55.630;37.864;2024-03-02T20:19:57;100897.09;;;-1.15;67.05
53715;BME280;39608;55.630;37.864;2024-03-02T20:24:59;100892.50;;;-1.22;67.30
53715;BME280;39608;55.630;37.864;2024-03-02T20:30:03;100895.34;;;-1.23;67.61
53715;BME280;39608;55.630;37.864;2024-03-02T20:35:07;100898.91;;;-1.31;67.57
53715;BME280;39608;55.630;37.864;2024-03-02T20:40:11;100905.16;;;-1.24;67.37
53715;BME280;39608;55.630;37.864;2024-03-02T20:45:16;100890.28;;;-1.18;67.95
53715;BME280;39608;55.630;37.864;2024-03-02T20:50:19;100901.59;;;-1.16;67.75
53715;BME280;39608;55.630;37.864;2024-03-02T20:55:21;100905.06;;;-1.15;67.67
53715;BME280;39608;55.630;37.864;2024-03-02T21:00:24;100909.31;;;-1.06;67.35
53715;BME280;39608;55.630;37.864;2024-03-02T21:05:26;100907.66;;;-1.07;67.54
53715;BME280;39608;55.630;37.864;2024-03-02T21:10:28;100908.66;;;-1.08;66.83
53715;BME280;39608;55.630;37.864;2024-03-02T21:15:32;100908.84;;;-1.10;67.24
53715;BME280;39608;55.630;37.864;2024-03-02T21:20:34;100911.69;;;-1.11;67.45
53715;BME280;39608;55.630;37.864;2024-03-02T21:25:36;100905.06;;;-1.15;66.91
53715;BME280;39608;55.630;37.864;2024-03-02T21:30:44;100912.69;;;-1.12;67.04
53715;BME280;39608;55.630;37.864;2024-03-02T21:35:46;100927.03;;;-1.13;66.75
53715;BME280;39608;55.630;37.864;2024-03-02T21:40:48;100916.91;;;-1.18;66.76
53715;BME280;39608;55.630;37.864;2024-03-02T21:45:51;100913.06;;;-1.15;66.77
53715;BME280;39608;55.630;37.864;2024-03-02T21:50:53;100924.25;;;-1.20;66.48
53715;BME280;39608;55.630;37.864;2024-03-02T21:55:55;100917.53;;;-1.31;66.54
53715;BME280;39608;55.630;37.864;2024-03-02T22:00:59;100914.88;;;-1.31;67.09
53715;BME280;39608;55.630;37.864;2024-03-02T22:06:01;100934.06;;;-1.35;67.09
53715;BME280;39608;55.630;37.864;2024-03-02T22:11:03;100923.31;;;-1.42;66.79
53715;BME280;39608;55.630;37.864;2024-03-02T22:16:07;100923.00;;;-1.47;67.01
53715;BME280;39608;55.630;37.864;2024-03-02T22:21:11;100920.78;;;-1.59;67.18
53715;BME280;39608;55.630;37.864;2024-03-02T22:26:13;100922.34;;;-1.64;67.05
53715;BME280;39608;55.630;37.864;2024-03-02T22:31:17;100929.69;;;-1.66;66.46
53715;BME280;39608;55.630;37.864;2024-03-02T22:36:19;100928.72;;;-1.74;67.29
53715;BME280;39608;55.630;37.864;2024-03-02T22:41:21;100935.41;;;-1.78;66.96
53715;BME280;39608;55.630;37.864;2024-03-02T22:46:24;100950.00;;;-1.74;67.00
53715;BME280;39608;55.630;37.864;2024-03-02T22:51:26;100936.59;;;-1.80;66.65
53715;BME280;39608;55.630;37.864;2024-03-02T22:56:28;100937.84;;;-1.91;67.15
53715;BME280;39608;55.630;37.864;2024-03-02T23:01:32;100938.25;;;-2.02;67.00
53715;BME280;39608;55.630;37.864;2024-03-02T23:06:34;100939.78;;;-2.08;67.15
53715;BME280;39608;55.630;37.864;2024-03-02T23:11:36;100950.28;;;-2.15;67.36
53715;BME280;39608;55.630;37.864;2024-03-02T23:16:39;100948.16;;;-2.19;66.78
53715;BME280;39608;55.630;37.864;2024-03-02T23:21:44;100953.53;;;-2.28;67.43
53715;BME280;39608;55.630;37.864;2024-03-02T23:26:46;100943.56;;;-2.34;66.70
53715;BME280;39608;55.630;37.864;2024-03-02T23:31:50;100945.94;;;-2.39;67.33
53715;BME280;39608;55.630;37.864;2024-03-02T23:36:52;100945.00;;;-2.46;67.54
53715;BME280;39608;55.630;37.864;2024-03-02T23:41:54;100947.84;;;-2.56;67.16
53715;BME280;39608;55.630;37.864;2024-03-02T23:46:58;100958.63;;;-2.58;67.26
53715;BME280;39608;55.630;37.864;2024-03-02T23:52:00;100957.31;;;-2.62;67.27
53715;BME280;39608;55.630;37.864;2024-03-02T23:57:02;100953.31;;;-2.58;67.56
